Time;durP1;ratioP1;P1;durP2;ratioP2;P2;SDS_P1;SDS_P2;PMS_P1;PMS_P2;Temp;Humidity;BMP_temperature;BMP_pressure;BME280_temperature;BME280_humidity;BME280_pressure;Samples;Min_cycle;Max_cycle;Signal;HPM_P1;HPM_P2
2021/06/03 00:01:23;;;;;;;59.85;25.33;;;;;;;11.72;49.71;99221.84;4941549;29;20027;-72
2021/06/03 00:03:48;;;;;;;62.90;25.85;;;;;;;11.69;49.24;99229.81;4939378;28;20032;-72
2021/06/03 00:06:14;;;;;;;57.97;24.63;;;;;;;11.61;49.89;99226.56;4946193;29;20035;-71
2021/06/03 00:08:39;;;;;;;55.40;24.83;;;;;;;11.54;49.65;99231.59;4947636;29;20035;-72
2021/06/03 00:11:10;;;;;;;59.13;23.88;;;;;;;11.47;49.90;99228.31;4944545;29;20056;-73
2021/06/03 00:13:38;;;;;;;59.05;24.92;;;;;;;11.43;50.60;99224.50;4945380;29;20031;-72
2021/06/03 00:16:07;;;;;;;65.95;28.63;;;;;;;11.40;50.41;99236.03;4945387;28;20041;-72
2021/06/03 00:18:33;;;;;;;56.85;24.45;;;;;;;11.37;50.93;99240.19;4950823;28;20042;-72
2021/06/03 00:20:59;;;;;;;60.58;25.10;;;;;;;11.35;50.27;99231.41;4945388;29;20033;-72
2021/06/03 00:23:24;;;;;;;62.80;24.38;;;;;;;11.32;50.95;99230.03;4947306;29;20035;-72
2021/06/03 00:25:50;;;;;;;56.47;24.38;;;;;;;11.32;50.81;99229.22;4948140;28;20158;-72
2021/06/03 00:28:16;;;;;;;56.72;23.67;;;;;;;11.32;50.54;99234.72;4942042;28;20114;-72
2021/06/03 00:30:43;;;;;;;60.97;24.45;;;;;;;11.29;50.50;99229.78;4941010;29;20674;-72
2021/06/03 00:33:08;;;;;;;64.47;25.30;;;;;;;11.29;51.09;99229.78;4944633;29;20058;-72
2021/06/03 00:35:34;;;;;;;67.32;27.35;;;;;;;11.27;51.06;99230.06;4944733;28;20717;-72
2021/06/03 00:37:59;;;;;;;56.28;25.10;;;;;;;11.25;51.56;99228.72;4946676;29;20052;-72
2021/06/03 00:40:25;;;;;;;56.47;24.70;;;;;;;11.19;51.53;99233.41;4943987;29;20117;-72
2021/06/03 00:42:51;;;;;;;58.85;24.83;;;;;;;11.15;51.51;99229.59;4945605;28;20027;-72
2021/06/03 00:45:26;;;;;;;57.58;25.33;;;;;;;11.13;51.51;99220.81;4946491;28;20024;-72
2021/06/03 00:47:52;;;;;;;56.63;23.77;;;;;;;11.12;51.46;99228.19;4945411;29;20040;-72
2021/06/03 00:50:22;;;;;;;54.20;24.95;;;;;;;11.12;51.56;99227.41;4944900;29;20030;-72
2021/06/03 00:52:47;;;;;;;;;;;;;;;11.12;50.90;99227.41;4945549;29;20031;-74
2021/06/03 00:55:12;;;;;;;57.88;25.95;;;;;;;11.08;51.82;99229.06;4951998;28;19922;-73
2021/06/03 00:57:38;;;;;;;54.30;24.80;;;;;;;11.03;51.52;99227.13;4952582;29;20038;-73
2021/06/03 01:00:10;;;;;;;53.80;25.00;;;;;;;10.98;51.74;99224.44;4947001;28;20575;-73
2021/06/03 01:02:36;;;;;;;56.63;26.13;;;;;;;10.95;51.56;99225.81;4955316;29;20037;-73
2021/06/03 01:05:08;;;;;;;54.08;25.83;;;;;;;10.94;51.70;99218.66;4966786;28;20461;-73
2021/06/03 01:07:34;;;;;;;58.20;24.70;;;;;;;10.94;52.15;99218.66;4951159;29;20040;-73
2021/06/03 01:10:36;;;;;;;56.90;26.10;;;;;;;10.92;52.59;99222.81;4941410;28;20075;-73
2021/06/03 01:13:26;;;;;;;54.42;25.30;;;;;;;10.86;52.12;99219.25;4918593;29;20056;-73
2021/06/03 01:15:53;;;;;;;53.15;25.52;;;;;;;10.85;51.48;99212.09;4952851;29;20366;-73
2021/06/03 01:18:20;;;;;;;51.72;25.10;;;;;;;10.81;51.63;99222.00;4939786;28;20035;-74
2021/06/03 01:20:48;;;;;;;56.78;26.20;;;;;;;10.76;52.36;99213.81;4943717;28;20042;-72
2021/06/03 01:23:41;;;;;;;54.47;25.20;;;;;;;10.73;52.39;99223.41;4944749;29;20501;-73
2021/06/03 01:26:07;;;;;;;48.92;24.88;;;;;;;10.72;53.11;99217.09;4940777;29;20417;-73
2021/06/03 01:28:35;;;;;;;56.10;26.42;;;;;;;10.66;52.82;99218.22;4947925;28;20035;-74
2021/06/03 01:31:00;;;;;;;58.20;26.77;;;;;;;10.62;52.26;99219.88;4943027;28;20032;-73
2021/06/03 01:33:29;;;;;;;54.08;25.77;;;;;;;10.60;52.42;99229.47;4949100;29;20045;-73
2021/06/03 01:35:58;;;;;;;55.05;26.35;;;;;;;10.61;52.79;99225.63;4951297;28;20023;-73
2021/06/03 01:38:30;;;;;;;53.17;25.90;;;;;;;10.59;52.62;99222.34;4946666;28;20531;-73
2021/06/03 01:40:57;;;;;;;59.08;25.38;;;;;;;10.58;52.64;99224.25;4942861;29;20035;-73
2021/06/03 01:43:24;;;;;;;48.28;24.63;;;;;;;10.55;52.82;99228.38;4944738;29;20426;-73
2021/06/03 01:45:51;;;;;;;49.40;24.85;;;;;;;10.52;53.16;99231.69;4957265;28;20457;-73
2021/06/03 01:48:18;;;;;;;51.80;23.98;;;;;;;10.49;52.87;99231.41;4952278;29;20045;-73
2021/06/03 01:50:46;;;;;;;51.22;23.73;;;;;;;10.45;53.49;99228.41;4940503;29;20512;-73
2021/06/03 01:53:12;;;;;;;52.80;26.50;;;;;;;10.42;53.38;99228.94;4943182;29;20095;-73
2021/06/03 01:55:38;;;;;;;56.65;25.92;;;;;;;10.41;53.37;99233.59;4945350;29;20023;-73
2021/06/03 01:58:04;;;;;;;57.85;26.85;;;;;;;10.41;53.39;99233.59;4949996;28;20034;-73
2021/06/03 02:00:30;;;;;;;55.20;26.17;;;;;;;10.40;53.71;99231.94;4949343;29;20106;-73
2021/06/03 02:02:56;;;;;;;55.15;25.85;;;;;;;10.38;53.90;99231.41;4943630;29;20079;-73
2021/06/03 02:05:22;;;;;;;54.80;23.92;;;;;;;10.36;53.63;99233.59;4951704;28;20031;-73
2021/06/03 02:07:47;;;;;;;48.90;23.33;;;;;;;10.35;53.14;99240.19;4940910;29;20066;-73
2021/06/03 02:10:15;;;;;;;58.10;24.73;;;;;;;10.32;53.51;99243.47;4944283;29;20040;-73
2021/06/03 02:12:45;;;;;;;53.53;24.67;;;;;;;10.27;53.20;99233.31;4949803;29;20373;-73
2021/06/03 02:15:12;;;;;;;55.35;25.48;;;;;;;10.28;53.70;99234.16;4952795;28;20038;-74
2021/06/03 02:17:46;;;;;;;48.75;23.92;;;;;;;10.27;53.42;99236.06;4943952;29;20024;-73
2021/06/03 02:20:18;;;;;;;47.55;22.92;;;;;;;10.24;53.47;99235.78;4967580;28;20134;-73
2021/06/03 02:22:48;;;;;;;54.90;24.88;;;;;;;10.21;54.09;99236.34;4953552;29;20039;-72
2021/06/03 02:25:14;;;;;;;51.65;25.35;;;;;;;10.19;54.39;99233.03;4943263;29;20755;-73
2021/06/03 02:27:42;;;;;;;53.63;25.60;;;;;;;10.16;54.26;99226.22;4952895;29;20031;-73
2021/06/03 02:30:09;;;;;;;48.95;25.35;;;;;;;10.18;53.53;99240.47;4944838;29;20036;-73
2021/06/03 02:32:35;;;;;;;52.33;25.67;;;;;;;10.16;54.30;99239.06;4947183;29;20028;-73
2021/06/03 02:35:03;;;;;;;56.15;24.30;;;;;;;10.15;54.09;99232.78;4939035;29;20079;-73
2021/06/03 02:37:29;;;;;;;51.58;24.35;;;;;;;10.16;54.23;99239.06;4948808;29;20031;-74
2021/06/03 02:40:03;;;;;;;47.55;24.27;;;;;;;10.15;54.18;99240.16;4948439;28;20425;-73
2021/06/03 02:42:28;;;;;;;52.15;23.48;;;;;;;10.13;54.41;99240.47;4952018;28;20031;-73
2021/06/03 02:44:54;;;;;;;52.25;23.92;;;;;;;10.12;54.60;99247.03;4945664;29;20482;-73
2021/06/03 02:47:19;;;;;;;59.50;25.63;;;;;;;10.10;53.71;99249.22;4943553;29;20027;-73
2021/06/03 02:49:45;;;;;;;54.47;25.30;;;;;;;10.12;54.29;99249.78;4945842;29;20382;-73
2021/06/03 02:52:10;;;;;;;50.28;24.13;;;;;;;10.12;54.43;99253.31;4944956;28;20035;-73
2021/06/03 02:54:35;;;;;;;52.10;23.70;;;;;;;10.10;53.95;99252.78;4958189;28;20035;-73
2021/06/03 02:57:01;;;;;;;49.88;23.63;;;;;;;10.08;54.11;99254.16;4947461;29;20031;-73
2021/06/03 02:59:27;;;;;;;53.45;24.67;;;;;;;10.06;53.65;99259.09;4939246;28;20027;-73
2021/06/03 03:01:53;;;;;;;50.33;23.33;;;;;;;10.04;54.47;99253.88;4942802;29;20396;-73
2021/06/03 03:04:18;;;;;;;49.22;23.85;;;;;;;10.02;54.11;99247.84;4940705;29;20039;-73
2021/06/03 03:06:43;;;;;;;52.30;24.73;;;;;;;10.01;54.25;99257.16;4946929;28;20019;-72
2021/06/03 03:09:09;;;;;;;49.22;24.30;;;;;;;10.01;54.10;99262.63;4940695;28;20095;-73
2021/06/03 03:11:34;;;;;;;50.53;23.77;;;;;;;10.04;54.96;99255.78;4964798;28;20023;-73
2021/06/03 03:14:00;;;;;;;53.78;24.30;;;;;;;10.05;54.94;99269.22;4940911;29;20028;-73
2021/06/03 03:16:25;;;;;;;47.25;23.42;;;;;;;10.04;54.61;99273.06;4947306;28;20035;-72
2021/06/03 03:18:51;;;;;;;52.25;23.00;;;;;;;10.03;54.60;99262.38;4938253;29;20462;-73
2021/06/03 03:21:17;;;;;;;50.22;23.95;;;;;;;10.03;54.28;99265.13;4947506;29;20036;-73
2021/06/03 03:23:42;;;;;;;53.65;25.25;;;;;;;10.02;54.90;99260.72;4939816;29;20546;-73
2021/06/03 03:26:08;;;;;;;51.35;24.23;;;;;;;10.05;54.77;99266.47;4946059;28;20038;-73
2021/06/03 03:28:33;;;;;;;53.60;24.00;;;;;;;10.07;54.99;99267.03;4946062;28;20468;-73
2021/06/03 03:30:59;;;;;;;52.60;23.92;;;;;;;10.07;55.08;99264.28;4943071;29;20019;-73
2021/06/03 03:33:24;;;;;;;53.30;25.90;;;;;;;10.09;55.08;99258.53;4947217;29;20062;-73
2021/06/03 03:35:50;;;;;;;53.38;23.13;;;;;;;10.11;55.06;99278.28;4942110;29;20042;-73
2021/06/03 03:38:18;;;;;;;43.83;23.35;;;;;;;10.08;55.00;99278.81;4941890;29;20059;-72
2021/06/03 03:40:44;;;;;;;52.72;24.80;;;;;;;10.07;55.47;99282.66;4941642;29;20031;-73
2021/06/03 03:43:10;;;;;;;49.17;25.38;;;;;;;10.08;54.67;99271.41;4943303;29;20554;-73
2021/06/03 03:45:35;;;;;;;52.25;25.45;;;;;;;10.10;54.96;99274.69;4947050;28;20552;-73
2021/06/03 03:48:03;;;;;;;54.97;27.15;;;;;;;10.14;55.67;99272.25;4950946;28;20067;-73
2021/06/03 03:50:30;;;;;;;52.47;26.38;;;;;;;10.18;55.56;99273.34;4947739;29;20030;-73
2021/06/03 03:52:55;;;;;;;49.60;26.23;;;;;;;10.24;55.27;99280.47;4941318;28;20055;-73
2021/06/03 03:55:21;;;;;;;50.58;23.33;;;;;;;10.29;55.67;99274.19;4944731;29;20482;-73
2021/06/03 03:57:48;;;;;;;47.60;23.10;;;;;;;10.34;55.45;99276.09;4944880;28;20118;-73
2021/06/03 04:00:26;;;;;;;48.90;21.83;;;;;;;10.37;55.76;99279.13;4948508;29;20024;-73
2021/06/03 04:02:51;;;;;;;44.60;22.23;;;;;;;10.42;55.53;99287.34;4943476;29;20036;-73
2021/06/03 04:05:17;;;;;;;47.85;21.73;;;;;;;10.47;55.72;99280.22;4943122;29;20038;-73
2021/06/03 04:07:44;;;;;;;48.95;21.92;;;;;;;10.49;56.19;99278.88;4940232;29;20386;-73
2021/06/03 04:10:17;;;;;;;43.65;20.65;;;;;;;10.56;55.77;99286.81;4942664;29;20032;-73
2021/06/03 04:12:43;;;;;;;44.00;21.23;;;;;;;10.62;55.67;99282.13;4975549;28;20118;-73
2021/06/03 04:15:10;;;;;;;47.42;20.70;;;;;;;10.68;55.88;99283.75;4943122;28;20100;-72
2021/06/03 04:17:36;;;;;;;43.47;20.45;;;;;;;10.72;56.38;99285.69;4941655;29;20163;-73
2021/06/03 04:20:03;;;;;;;41.15;20.35;;;;;;;10.80;55.89;99286.22;4938438;29;20482;-73
2021/06/03 04:22:28;;;;;;;43.50;19.58;;;;;;;10.87;55.84;99290.31;4957900;28;20027;-73
2021/06/03 04:24:54;;;;;;;39.15;20.20;;;;;;;10.95;56.20;99288.13;4941962;29;20106;-73
2021/06/03 04:27:19;;;;;;;44.75;21.05;;;;;;;11.01;56.07;99292.47;4941280;28;20118;-73
2021/06/03 04:29:45;;;;;;;42.92;19.38;;;;;;;11.09;56.05;99296.59;4943404;28;20027;-73
2021/06/03 04:32:10;;;;;;;43.78;19.42;;;;;;;11.17;55.57;99287.78;4951773;29;20023;-73
2021/06/03 04:34:36;;;;;;;37.83;18.20;;;;;;;11.25;55.92;99297.34;4946487;28;20031;-73
2021/06/03 04:37:02;;;;;;;34.80;17.48;;;;;;;11.32;56.06;99293.19;4946092;29;20074;-73
2021/06/03 04:39:28;;;;;;;38.97;18.58;;;;;;;11.41;55.92;99300.88;4942567;29;20043;-73
2021/06/03 04:41:53;;;;;;;31.95;18.15;;;;;;;11.50;56.20;99295.59;4958103;28;20027;-72
2021/06/03 04:44:19;;;;;;;41.28;18.83;;;;;;;11.58;56.49;99295.00;4953254;28;20039;-73
2021/06/03 04:46:45;;;;;;;42.63;18.35;;;;;;;11.66;55.94;99299.09;4946300;29;20114;-73
2021/06/03 04:49:10;;;;;;;40.60;19.27;;;;;;;11.74;56.26;99301.25;4944674;28;20391;-73
2021/06/03 04:51:38;;;;;;;40.42;20.02;;;;;;;11.82;55.88;99300.66;4941468;29;20035;-72
2021/06/03 04:54:05;;;;;;;38.88;19.02;;;;;;;11.89;55.81;99303.09;4947069;29;20054;-72
2021/06/03 04:56:30;;;;;;;41.10;18.33;;;;;;;11.97;55.87;99302.50;4948397;28;20525;-73
2021/06/03 04:58:56;;;;;;;37.83;17.55;;;;;;;12.05;56.30;99301.09;4946593;29;20131;-73
2021/06/03 05:01:22;;;;;;;37.70;19.08;;;;;;;12.12;56.20;99306.28;4948699;29;20102;-73
2021/06/03 05:03:47;;;;;;;39.97;18.30;;;;;;;12.19;56.24;99299.34;4949928;28;20050;-73
2021/06/03 05:06:12;;;;;;;35.30;16.83;;;;;;;12.27;55.85;99305.34;4945241;29;20036;-73
2021/06/03 05:08:38;;;;;;;38.35;17.55;;;;;;;12.38;56.29;99295.06;4949567;28;20401;-73
2021/06/03 05:11:03;;;;;;;35.33;17.08;;;;;;;12.46;56.10;99302.72;4951321;29;20062;-73
2021/06/03 05:13:30;;;;;;;40.00;17.40;;;;;;;12.54;56.03;99299.34;4948389;28;20027;-73
2021/06/03 05:15:56;;;;;;;34.40;16.70;;;;;;;12.61;55.75;99302.59;4949921;29;20118;-73
2021/06/03 05:18:22;;;;;;;38.10;16.45;;;;;;;12.70;55.65;99307.44;4946695;29;20082;-73
2021/06/03 05:20:48;;;;;;;29.85;15.40;;;;;;;12.77;56.10;99311.53;4949451;28;20023;-73
2021/06/03 05:23:14;;;;;;;36.95;16.05;;;;;;;12.83;55.55;99317.00;4952972;29;20405;-73
2021/06/03 05:25:39;;;;;;;32.67;15.70;;;;;;;12.90;55.41;99315.53;4965372;28;20090;-72
2021/06/03 05:28:05;;;;;;;35.33;15.82;;;;;;;12.97;55.77;99312.41;4949790;29;20034;-73
2021/06/03 05:30:30;;;;;;;35.75;16.10;;;;;;;13.06;55.42;99312.59;4946978;28;20058;-72
2021/06/03 05:32:56;;;;;;;31.48;16.50;;;;;;;13.16;55.28;99311.69;4948144;28;20067;-73
2021/06/03 05:35:23;;;;;;;34.90;15.00;;;;;;;13.25;55.45;99321.75;4941108;29;20035;-73
2021/06/03 05:37:49;;;;;;;29.60;15.15;;;;;;;13.32;55.11;99318.66;4946627;28;20029;-72
2021/06/03 05:40:18;;;;;;;39.88;16.45;;;;;;;13.40;55.55;99315.25;4952978;28;20190;-73
2021/06/03 05:43:24;;;;;;;33.70;15.90;;;;;;;13.49;55.36;99309.13;4962175;28;20030;-73
2021/06/03 05:45:50;;;;;;;31.65;15.55;;;;;;;13.61;55.42;99314.19;4944544;29;20040;-74
2021/06/03 05:48:15;;;;;;;33.42;15.68;;;;;;;13.67;55.10;99310.25;4935962;29;20051;-73
2021/06/03 05:50:41;;;;;;;30.50;14.90;;;;;;;13.78;55.21;99319.22;4950693;29;20015;-73
2021/06/03 05:53:06;;;;;;;29.75;15.35;;;;;;;13.86;55.23;99321.31;4944477;28;20039;-72
2021/06/03 05:55:31;;;;;;;31.83;15.30;;;;;;;13.92;55.03;99324.81;4946287;29;20033;-72
2021/06/03 05:57:57;;;;;;;31.38;14.63;;;;;;;14.02;55.08;99321.91;4954834;28;20034;-73
2021/06/03 06:00:26;;;;;;;29.52;14.52;;;;;;;14.11;54.91;99325.66;4950318;28;20046;-73
2021/06/03 06:03:01;;;;;;;38.20;15.23;;;;;;;14.21;55.00;99323.88;4941233;29;20449;-73
2021/06/03 06:08:13;;;;;;;31.38;13.80;;;;;;;14.43;54.96;99329.56;4954816;29;20037;-73
2021/06/03 06:10:40;;;;;;;31.80;14.52;;;;;;;14.54;54.92;99321.94;4954362;28;20027;-73
2021/06/03 06:13:43;;;;;;;29.50;14.05;;;;;;;14.66;54.93;99329.75;4953473;28;20031;-73
2021/06/03 06:16:09;;;;;;;36.80;15.30;;;;;;;14.83;54.75;99325.63;4954348;29;20110;-73
2021/06/03 06:18:35;;;;;;;28.30;13.48;;;;;;;14.92;54.85;99329.34;4969603;28;20137;-74
2021/06/03 06:21:01;;;;;;;27.50;13.02;;;;;;;15.04;54.56;99328.84;4954470;28;20029;-74
2021/06/03 06:23:26;;;;;;;23.65;11.98;;;;;;;15.14;54.55;99334.19;4942527;29;20065;-73
2021/06/03 06:25:52;;;;;;;23.38;10.52;;;;;;;15.26;54.36;99336.44;4951770;29;20402;-74
2021/06/03 06:28:17;;;;;;;24.35;11.43;;;;;;;15.38;54.28;99337.88;4953098;28;20039;-74
2021/06/03 06:30:43;;;;;;;24.42;11.50;;;;;;;15.51;54.37;99334.28;4951124;28;20027;-74
2021/06/03 06:33:09;;;;;;;20.20;9.70;;;;;;;15.61;54.16;99336.03;4946872;29;20046;-72
2021/06/03 06:35:35;;;;;;;22.85;9.40;;;;;;;15.74;54.00;99340.72;4947122;28;20036;-73
2021/06/03 06:38:02;;;;;;;18.35;9.30;;;;;;;15.87;53.89;99343.81;4935171;29;20097;-73
2021/06/03 06:40:28;;;;;;;23.40;9.68;;;;;;;15.98;52.88;99336.09;4935011;29;20028;-75
2021/06/03 06:42:54;;;;;;;17.75;7.03;;;;;;;16.08;53.08;99344.19;4949807;29;20050;-74
2021/06/03 06:45:25;;;;;;;12.57;6.50;;;;;;;16.23;52.60;99351.31;4947128;29;20047;-74
2021/06/03 06:47:52;;;;;;;13.13;5.93;;;;;;;16.37;52.27;99349.31;4942295;28;20031;-75
2021/06/03 06:50:17;;;;;;;13.70;6.13;;;;;;;16.50;51.38;99353.16;4947492;29;20493;-75
2021/06/03 06:52:42;;;;;;;13.10;5.88;;;;;;;16.64;51.18;99358.63;4943937;29;20158;-73
2021/06/03 06:55:09;;;;;;;17.10;7.30;;;;;;;16.73;49.81;99357.88;4950947;29;20035;-74
2021/06/03 06:57:35;;;;;;;16.25;7.32;;;;;;;16.80;49.25;99352.72;4949839;28;20054;-76
2021/06/03 07:00:06;;;;;;;13.27;7.18;;;;;;;16.85;48.94;99352.59;4945780;29;20527;-75
2021/06/03 07:02:32;;;;;;;21.75;8.68;;;;;;;16.91;48.53;99345.75;4946996;28;20085;-75
2021/06/03 07:04:58;;;;;;;15.23;6.57;;;;;;;16.98;48.26;99342.59;4944496;29;20111;-73
2021/06/03 07:07:23;;;;;;;16.27;6.53;;;;;;;17.07;47.97;99354.56;4944744;29;20028;-73
2021/06/03 07:09:49;;;;;;;15.38;8.45;;;;;;;17.14;47.70;99348.53;4943548;29;20030;-74
2021/06/03 07:12:15;;;;;;;15.35;7.35;;;;;;;17.21;47.44;99357.22;4939035;29;20118;-74
2021/06/03 07:15:08;;;;;;;13.48;7.32;;;;;;;17.33;47.73;99355.78;4941818;29;20119;-74
2021/06/03 07:17:34;;;;;;;15.38;6.93;;;;;;;17.41;47.25;99355.00;4942404;29;20047;-73
2021/06/03 07:20:00;;;;;;;14.20;6.72;;;;;;;17.51;47.26;99353.94;4941921;29;20027;-73
2021/06/03 07:22:25;;;;;;;14.40;6.90;;;;;;;17.61;46.53;99347.25;4944493;28;20066;-73
2021/06/03 07:24:50;;;;;;;12.18;7.15;;;;;;;17.66;46.25;99347.91;4950290;29;20375;-74
2021/06/03 07:27:16;;;;;;;12.85;6.53;;;;;;;17.72;46.48;99348.59;4939989;29;20398;-74
2021/06/03 07:29:41;;;;;;;13.95;6.78;;;;;;;17.77;45.81;99353.19;4945624;29;20042;-74
2021/06/03 07:32:08;;;;;;;12.90;6.15;;;;;;;17.88;46.24;99356.47;4951242;29;20035;-72
2021/06/03 07:34:34;;;;;;;11.23;6.28;;;;;;;17.98;46.02;99350.59;4950183;28;20115;-71
2021/06/03 07:36:59;;;;;;;18.35;7.40;;;;;;;18.09;45.67;99353.91;4949450;29;20031;-71
2021/06/03 07:39:25;;;;;;;13.55;6.63;;;;;;;18.19;45.61;99355.56;4947918;29;20142;-73
2021/06/03 07:41:51;;;;;;;16.42;7.32;;;;;;;18.28;45.24;99353.59;4947739;29;20363;-72
2021/06/03 07:44:17;;;;;;;17.55;7.95;;;;;;;18.36;45.18;99355.56;4948865;29;20480;-74
2021/06/03 07:46:43;;;;;;;17.25;9.05;;;;;;;18.45;45.33;99350.00;4950786;29;20050;-73
2021/06/03 07:49:12;;;;;;;18.55;8.50;;;;;;;18.54;45.09;99352.81;4948829;28;20553;-72
2021/06/03 07:51:37;;;;;;;17.50;8.68;;;;;;;18.62;44.74;99345.59;4947023;28;20118;-72
2021/06/03 07:54:03;;;;;;;13.77;6.72;;;;;;;18.66;44.50;99352.13;4951863;28;20035;-72
2021/06/03 07:56:28;;;;;;;11.93;7.47;;;;;;;18.71;44.09;99355.53;4943028;29;20039;-71
2021/06/03 07:58:54;;;;;;;13.82;7.47;;;;;;;18.80;44.37;99363.06;4948364;29;20020;-72
2021/06/03 08:01:19;;;;;;;14.68;6.50;;;;;;;18.87;44.27;99360.59;4942842;29;20040;-72
2021/06/03 08:03:45;;;;;;;16.75;6.88;;;;;;;18.95;43.81;99354.19;4941781;28;20316;-73
2021/06/03 08:06:10;;;;;;;17.15;7.70;;;;;;;19.01;43.44;99352.91;4947382;28;20503;-72
2021/06/03 08:08:36;;;;;;;15.23;6.90;;;;;;;19.08;43.47;99352.41;4946107;28;20026;-74
2021/06/03 08:11:03;;;;;;;15.93;7.22;;;;;;;19.14;43.11;99355.81;4945090;29;20114;-73
2021/06/03 08:13:28;;;;;;;21.70;8.27;;;;;;;19.18;42.88;99352.03;4947576;29;20023;-73
2021/06/03 08:15:53;;;;;;;16.17;7.93;;;;;;;19.26;43.13;99357.88;4950767;28;20023;-73
2021/06/03 08:18:19;;;;;;;11.65;6.60;;;;;;;19.34;42.62;99357.06;4944579;29;20031;-72
2021/06/03 08:20:48;;;;;;;13.00;6.72;;;;;;;19.38;42.74;99359.97;4943853;29;20023;-74
2021/06/03 08:23:15;;;;;;;;;;;;;;;19.45;42.70;99354.72;4948161;28;20106;-75
2021/06/03 08:25:41;;;;;;;14.07;6.57;;;;;;;19.50;42.57;99360.09;4943928;28;19922;-73
2021/06/03 08:28:06;;;;;;;15.73;7.00;;;;;;;19.53;42.10;99353.84;4945516;29;20113;-74
2021/06/03 08:30:34;;;;;;;9.25;5.68;;;;;;;19.62;42.22;99362.97;4944917;28;20098;-75
2021/06/03 08:32:59;;;;;;;11.75;6.03;;;;;;;19.67;41.42;99355.59;4943865;28;20126;-75
2021/06/03 08:35:25;;;;;;;11.18;5.60;;;;;;;19.73;41.60;99357.03;4949794;28;20102;-76
2021/06/03 08:37:56;;;;;;;12.48;5.82;;;;;;;19.80;41.52;99360.09;4944003;29;20028;-73
2021/06/03 08:40:25;;;;;;;20.15;8.88;;;;;;;19.86;40.86;99364.31;4947590;29;20512;-72
2021/06/03 08:42:53;;;;;;;12.77;6.87;;;;;;;19.92;41.19;99367.78;4947518;29;20024;-73
2021/06/03 08:45:20;;;;;;;14.55;6.57;;;;;;;19.98;41.24;99366.41;4944226;29;20039;-72
2021/06/03 08:47:47;;;;;;;39.13;16.02;;;;;;;20.05;40.80;99363.09;4930659;29;20490;-71
2021/06/03 08:50:13;;;;;;;12.85;6.07;;;;;;;20.06;40.45;99365.53;4932475;29;20020;-72
2021/06/03 08:52:38;;;;;;;12.70;5.68;;;;;;;20.10;40.41;99364.84;4936137;29;20119;-72
2021/06/03 08:56:14;;;;;;;13.48;7.25;;;;;;;20.15;40.24;99356.31;4933090;29;20040;-71
2021/06/03 08:57:55;;;;;;;11.48;5.47;;;;;;;20.15;39.99;99362.72;4950104;29;20131;-71
2021/06/03 09:00:21;;;;;;;14.82;7.75;;;;;;;20.20;39.82;99359.69;4951877;29;20110;-72
2021/06/03 09:02:47;;;;;;;20.58;8.82;;;;;;;20.27;39.54;99363.91;4952361;29;20086;-71
2021/06/03 09:05:12;;;;;;;15.00;6.65;;;;;;;20.33;39.56;99366.19;4952684;29;20023;-71
2021/06/03 09:07:40;;;;;;;14.80;7.32;;;;;;;20.40;39.49;99362.84;4952584;28;20388;-72
2021/06/03 09:10:25;;;;;;;9.45;6.30;;;;;;;20.48;39.95;99364.75;4952413;28;20388;-71
2021/06/03 09:13:08;;;;;;;11.23;5.85;;;;;;;20.55;39.76;99366.16;4940181;29;20019;-69
2021/06/03 09:15:33;;;;;;;11.32;6.32;;;;;;;20.60;39.52;99360.34;4933605;29;20114;-68
2021/06/03 09:18:00;;;;;;;12.65;5.85;;;;;;;20.66;39.93;99359.00;4936840;29;20051;-72
2021/06/03 09:20:26;;;;;;;9.88;5.68;;;;;;;20.70;39.07;99361.94;4936894;29;20446;-71
2021/06/03 09:22:54;;;;;;;11.90;5.65;;;;;;;20.71;38.83;99363.56;4936629;29;20143;-72
2021/06/03 09:25:33;;;;;;;12.02;5.70;;;;;;;20.76;39.33;99368.94;4952941;29;20034;-72
2021/06/03 09:28:34;;;;;;;19.58;9.70;;;;;;;20.83;39.18;99360.81;4955684;29;20054;-71
2021/06/03 09:31:01;;;;;;;15.82;6.85;;;;;;;20.92;39.21;99355.97;4955474;28;20039;-71
2021/06/03 09:33:41;;;;;;;11.77;6.00;;;;;;;20.98;38.26;99356.59;4970450;28;20035;-71
2021/06/03 09:36:09;;;;;;;11.93;6.20;;;;;;;20.99;38.16;99349.84;4955288;28;20049;-71
2021/06/03 09:38:36;;;;;;;10.35;6.93;;;;;;;20.98;38.30;99348.25;4955527;29;20055;-71
2021/06/03 09:41:02;;;;;;;10.48;6.20;;;;;;;21.00;37.87;99348.69;4955300;29;20031;-71
2021/06/03 09:43:28;;;;;;;15.38;7.05;;;;;;;21.03;38.28;99350.78;4955922;29;20039;-71
2021/06/03 09:45:55;;;;;;;10.70;5.78;;;;;;;21.06;38.22;99352.88;4954256;29;20383;-71
2021/06/03 09:48:44;;;;;;;11.27;5.70;;;;;;;21.08;37.71;99352.56;4954199;29;20382;-72
2021/06/03 09:51:26;;;;;;;10.02;5.97;;;;;;;21.10;37.76;99353.81;4950339;29;20050;-72
2021/06/03 09:54:01;;;;;;;13.30;6.32;;;;;;;21.15;37.97;99343.59;4953924;29;20020;-72
2021/06/03 09:56:38;;;;;;;13.13;7.32;;;;;;;21.20;38.18;99352.56;4954986;29;20130;-71
2021/06/03 09:59:14;;;;;;;12.57;6.97;;;;;;;21.24;37.84;99342.34;4954836;29;20023;-72
2021/06/03 10:01:46;;;;;;;14.60;9.05;;;;;;;21.26;37.61;99345.59;4954804;29;20486;-72
2021/06/03 10:04:14;;;;;;;16.95;8.85;;;;;;;21.26;37.37;99345.59;4939368;29;20040;-72
2021/06/03 10:07:02;;;;;;;16.08;5.88;;;;;;;21.25;37.52;99341.16;4942026;29;20111;-73
2021/06/03 10:09:42;;;;;;;32.55;17.55;;;;;;;21.30;37.41;99342.94;4953696;28;20031;-78
2021/06/03 10:12:10;;;;;;;16.40;8.75;;;;;;;21.33;37.53;99345.03;4954361;28;20031;-77
2021/06/03 10:14:37;;;;;;;44.03;23.67;;;;;;;21.38;37.46;99339.22;4954966;29;20039;-77
2021/06/03 10:17:15;;;;;;;15.63;7.47;;;;;;;21.48;37.71;99337.13;4954646;28;20035;-72
2021/06/03 10:19:41;;;;;;;14.55;6.40;;;;;;;21.52;37.04;99330.50;4954487;28;20041;-74
2021/06/03 10:22:13;;;;;;;10.15;6.53;;;;;;;21.58;37.44;99335.88;4953640;29;20023;-74
2021/06/03 10:24:53;;;;;;;11.15;5.47;;;;;;;21.61;36.59;99330.38;4953977;29;20028;-75
2021/06/03 10:27:21;;;;;;;11.80;6.30;;;;;;;21.64;36.92;99332.50;4953560;28;20386;-75
2021/06/03 10:29:50;;;;;;;8.85;5.20;;;;;;;21.68;36.38;99330.66;4954202;28;20609;-76
2021/06/03 10:32:22;;;;;;;9.30;5.80;;;;;;;21.70;36.37;99325.53;4938079;29;20042;-76
2021/06/03 10:34:47;;;;;;;16.38;6.95;;;;;;;21.78;36.80;99326.56;4950508;29;20159;-76
2021/06/03 10:37:14;;;;;;;11.02;5.82;;;;;;;21.87;36.77;99334.81;4953692;29;20110;-77
2021/06/03 10:39:42;;;;;;;12.00;6.85;;;;;;;21.94;36.94;99329.44;4951202;29;20039;-77
2021/06/03 10:42:11;;;;;;;10.90;6.65;;;;;;;21.97;36.19;99333.53;4946008;29;20062;-76
2021/06/03 10:44:37;;;;;;;14.02;6.85;;;;;;;22.04;36.52;99344.09;4943496;29;20118;-78
2021/06/03 10:47:02;;;;;;;10.77;5.93;;;;;;;22.10;36.67;99331.53;4932540;29;20115;-74
2021/06/03 10:49:31;;;;;;;11.75;6.57;;;;;;;22.14;36.17;99332.44;4932448;29;20038;-77
2021/06/03 10:52:00;;;;;;;14.98;6.97;;;;;;;22.24;36.79;99339.53;4932818;29;20437;-77
2021/06/03 10:54:55;;;;;;;16.57;6.73;;;;;;;22.32;36.85;99344.16;4932308;29;20120;-78
2021/06/03 10:57:24;;;;;;;14.27;6.55;;;;;;;22.34;35.87;99338.19;4945244;29;20287;-76
2021/06/03 10:59:50;;;;;;;15.07;6.90;;;;;;;22.30;34.95;99330.53;4932812;29;20075;-75
2021/06/03 11:02:16;;;;;;;29.15;9.57;;;;;;;22.34;35.61;99335.41;4950689;28;20039;-78
2021/06/03 11:04:44;;;;;;;9.93;5.55;;;;;;;22.40;35.80;99336.78;4951597;29;20561;-78
2021/06/03 11:07:11;;;;;;;10.23;6.18;;;;;;;22.41;34.90;99327.22;4951073;28;20034;-79
2021/06/03 11:09:45;;;;;;;14.82;5.85;;;;;;;22.44;35.84;99326.56;4948632;28;20054;-77
2021/06/03 11:12:13;;;;;;;11.48;5.78;;;;;;;22.50;35.75;99322.34;4951143;28;20431;-78
2021/06/03 11:14:57;;;;;;;10.43;5.87;;;;;;;22.52;35.34;99324.78;4951288;28;20039;-76
2021/06/03 11:17:48;;;;;;;9.02;5.05;;;;;;;22.48;34.35;99318.25;4951625;29;20039;-76
2021/06/03 11:20:13;;;;;;;12.00;5.85;;;;;;;22.44;34.20;99321.78;4950719;29;20027;-76
2021/06/03 11:22:38;;;;;;;13.13;7.65;;;;;;;22.45;34.49;99320.59;4950996;29;20034;-76
2021/06/03 11:25:05;;;;;;;11.82;6.20;;;;;;;22.47;34.57;99325.03;4951381;29;20038;-77
2021/06/03 11:27:39;;;;;;;15.35;7.25;;;;;;;22.47;35.14;99323.06;4951091;28;20086;-76
2021/06/03 11:30:10;;;;;;;9.25;5.43;;;;;;;22.51;34.95;99317.56;4951177;29;20027;-76